createdAt,value
2018-11-29T00:02:13.277Z,100847.55
2018-11-29T00:04:43.584Z,100852.14
2018-11-29T00:07:14.609Z,100853.83
2018-11-29T00:09:46.869Z,100857.47
2018-11-29T00:12:19.504Z,100855.48
2018-11-29T00:14:49.367Z,100854.06
2018-11-29T00:17:20.340Z,100856.50
2018-11-29T00:19:53.575Z,100864.06
2018-11-29T00:22:27.092Z,100862.81
2018-11-29T00:25:05.928Z,100874.15
2018-11-29T00:27:39.058Z,100870.44
2018-11-29T00:30:17.002Z,100875.64
2018-11-29T00:32:49.999Z,100883.00
2018-11-29T00:35:19.616Z,100877.31
2018-11-29T00:37:50.832Z,100867.87
2018-11-29T00:40:22.542Z,100868.55
2018-11-29T00:42:52.847Z,100868.17
2018-11-29T00:45:24.232Z,100860.90
2018-11-29T00:47:55.493Z,100861.39
2018-11-29T00:50:25.520Z,100865.70
2018-11-29T00:53:03.050Z,100869.95
2018-11-29T00:55:33.513Z,100872.53
2018-11-29T00:58:04.819Z,100878.09
2018-11-29T01:00:34.568Z,100880.51
2018-11-29T01:03:05.624Z,100882.24
2018-11-29T01:05:36.588Z,100883.59
2018-11-29T01:08:06.891Z,100887.42
2018-11-29T01:10:36.728Z,100894.77
2018-11-29T01:13:07.824Z,100894.16
2018-11-29T01:15:38.846Z,100903.50
2018-11-29T01:18:08.539Z,100906.09
2018-11-29T01:20:39.703Z,100909.73
2018-11-29T01:23:10.817Z,100913.58
2018-11-29T01:25:41.612Z,100910.58
2018-11-29T01:28:12.966Z,100910.59
2018-11-29T01:30:50.357Z,100909.81
2018-11-29T01:33:20.483Z,100910.96
2018-11-29T01:35:53.579Z,100911.16
2018-11-29T01:38:25.867Z,100911.66
2018-11-29T01:40:56.852Z,100911.08
2018-11-29T01:43:27.923Z,100909.25
2018-11-29T01:45:58.894Z,100914.16
2018-11-29T01:48:28.769Z,100912.21
2018-11-29T01:50:59.815Z,100914.83
2018-11-29T01:53:30.300Z,100916.05
2018-11-29T01:56:00.765Z,100908.08
2018-11-29T01:58:30.336Z,100902.96
2018-11-29T02:01:04.686Z,100898.17
2018-11-29T02:03:34.933Z,100897.39
2018-11-29T02:06:06.811Z,100894.02
2018-11-29T02:08:36.999Z,100891.63
2018-11-29T02:11:07.240Z,100885.64
2018-11-29T02:13:38.004Z,100884.56
2018-11-29T02:16:09.050Z,100884.85
2018-11-29T02:18:39.016Z,100876.98
2018-11-29T02:21:10.081Z,100884.66
2018-11-29T02:23:41.095Z,100891.94
2018-11-29T02:26:11.220Z,100895.43
2018-11-29T02:28:47.305Z,100892.64
2018-11-29T02:31:18.846Z,100897.46
2018-11-29T02:33:49.172Z,100895.63
2018-11-29T02:36:19.737Z,100899.81
2018-11-29T02:38:51.110Z,100902.14
2018-11-29T02:41:23.215Z,100905.22
2018-11-29T02:43:55.018Z,100901.84
2018-11-29T02:46:26.051Z,100908.00
2018-11-29T02:48:57.153Z,100900.69
2018-11-29T02:51:29.181Z,100901.44
2018-11-29T02:54:01.052Z,100904.43
2018-11-29T02:56:32.061Z,100906.05
2018-11-29T02:59:02.905Z,100905.81
2018-11-29T03:01:33.200Z,100906.28
2018-11-29T03:04:04.016Z,100893.88
2018-11-29T03:06:34.596Z,100898.46
2018-11-29T03:09:08.017Z,100893.05
2018-11-29T03:11:38.298Z,100889.89
2018-11-29T03:14:09.151Z,100887.81
2018-11-29T03:16:40.442Z,100883.48
2018-11-29T03:19:10.086Z,100883.86
2018-11-29T03:21:42.279Z,100885.69
2018-11-29T03:24:13.202Z,100885.44
2018-11-29T03:26:45.363Z,100879.98
2018-11-29T03:29:17.299Z,100879.48
2018-11-29T03:31:49.352Z,100883.44
2018-11-29T03:34:19.902Z,100886.94
2018-11-29T03:36:57.006Z,100888.09
2018-11-29T03:39:27.956Z,100886.27
2018-11-29T03:41:58.525Z,100880.23
2018-11-29T03:44:29.421Z,100885.69
2018-11-29T03:47:00.014Z,100886.31
2018-11-29T03:49:30.659Z,100885.36
2018-11-29T03:52:01.179Z,100884.94
2018-11-29T03:54:32.324Z,100884.77
2018-11-29T03:57:03.213Z,100891.47
2018-11-29T03:59:34.040Z,100893.34
2018-11-29T04:02:04.605Z,100894.58
2018-11-29T04:04:35.528Z,100880.23
2018-11-29T04:07:09.302Z,100878.16
2018-11-29T04:09:39.447Z,100869.47
2018-11-29T04:12:10.585Z,100864.06
2018-11-29T04:14:40.547Z,100870.67
2018-11-29T04:17:11.391Z,100876.74
2018-11-29T04:19:41.601Z,100879.48
2018-11-29T04:22:12.478Z,100883.77
2018-11-29T04:24:42.711Z,100900.78
2018-11-29T04:27:13.364Z,100899.66
2018-11-29T04:29:46.836Z,100904.32
2018-11-29T04:32:17.535Z,100906.03
2018-11-29T04:34:48.712Z,100918.67
2018-11-29T04:37:18.502Z,100907.73
2018-11-29T04:39:49.582Z,100902.08
2018-11-29T04:42:19.904Z,100893.75
2018-11-29T04:44:50.597Z,100884.91
2018-11-29T04:47:20.315Z,100891.59
2018-11-29T04:49:52.663Z,100902.62
2018-11-29T04:52:23.589Z,100911.56
2018-11-29T04:54:53.559Z,100907.41
2018-11-29T04:57:23.605Z,100900.83
2018-11-29T04:59:55.773Z,100905.23
2018-11-29T05:02:26.676Z,100897.04
2018-11-29T05:04:57.693Z,100894.75
2018-11-29T05:07:27.629Z,100901.91
2018-11-29T05:09:58.764Z,100910.44
2018-11-29T05:12:29.683Z,100910.94
2018-11-29T05:14:59.721Z,100925.33
2018-11-29T05:17:30.768Z,100927.45
2018-11-29T05:20:00.802Z,100931.03
2018-11-29T05:22:31.845Z,100930.70
2018-11-29T05:25:01.836Z,100933.73
2018-11-29T05:27:35.649Z,100934.07
2018-11-29T05:30:10.508Z,100939.64
2018-11-29T05:32:40.809Z,100941.42
2018-11-29T05:35:11.752Z,100943.14
2018-11-29T05:37:41.984Z,100944.12
2018-11-29T05:40:13.559Z,100943.84
2018-11-29T05:42:45.745Z,100947.14
2018-11-29T05:45:16.609Z,100959.88
2018-11-29T05:47:47.048Z,100959.20
2018-11-29T05:50:17.997Z,100962.03
2018-11-29T05:52:48.770Z,100968.36
2018-11-29T05:55:19.004Z,100960.87
2018-11-29T05:57:50.190Z,100963.28
2018-11-29T06:00:19.945Z,100965.86
2018-11-29T06:02:51.798Z,100965.11
2018-11-29T06:05:22.613Z,100968.27
2018-11-29T06:07:53.151Z,100966.69
2018-11-29T06:10:23.094Z,100962.66
2018-11-29T06:12:55.222Z,100960.95
2018-11-29T06:15:25.816Z,100962.23
2018-11-29T06:17:56.748Z,100952.03
2018-11-29T06:20:26.786Z,100949.70
2018-11-29T06:22:56.993Z,100953.91
2018-11-29T06:25:28.317Z,100949.00
2018-11-29T06:27:58.139Z,100940.96
2018-11-29T06:30:29.100Z,100941.95
2018-11-29T06:32:59.119Z,100935.09
2018-11-29T06:35:29.264Z,100935.27
2018-11-29T06:38:00.079Z,100935.77
2018-11-29T06:40:31.197Z,100935.77
2018-11-29T06:43:01.847Z,100942.55
2018-11-29T06:45:32.137Z,100931.81
2018-11-29T06:48:03.080Z,100935.33
2018-11-29T06:50:33.247Z,100926.47
2018-11-29T06:53:04.648Z,100922.17
2018-11-29T06:55:35.096Z,100927.31
2018-11-29T06:58:06.840Z,100918.95
2018-11-29T07:00:36.498Z,100919.06
2018-11-29T07:03:07.406Z,100924.05
2018-11-29T07:05:38.316Z,100927.55
2018-11-29T07:08:08.269Z,100929.38
2018-11-29T07:10:39.305Z,100922.84
2018-11-29T07:13:10.598Z,100926.86
2018-11-29T07:15:41.032Z,100927.53
2018-11-29T07:18:15.164Z,100926.28
2018-11-29T07:20:55.061Z,100928.30
2018-11-29T07:23:26.529Z,100929.94
2018-11-29T07:25:56.796Z,100917.04
2018-11-29T07:28:26.445Z,100915.64
2018-11-29T07:30:57.416Z,100909.67
2018-11-29T07:33:29.390Z,100915.13
2018-11-29T07:36:01.444Z,100916.00
2018-11-29T07:38:32.330Z,100917.77
2018-11-29T07:41:03.124Z,100926.15
2018-11-29T07:43:33.479Z,100925.45
2018-11-29T07:46:04.178Z,100939.03
2018-11-29T07:48:34.762Z,100937.07
2018-11-29T07:51:05.593Z,100935.31
2018-11-29T07:53:35.838Z,100933.78
2018-11-29T07:56:06.539Z,100937.74
2018-11-29T07:58:37.708Z,100934.41
2018-11-29T08:01:08.466Z,100936.36
2018-11-29T08:03:38.433Z,100945.95
2018-11-29T08:06:08.478Z,100947.77
2018-11-29T08:08:40.337Z,100943.95
2018-11-29T08:11:10.553Z,100943.89
2018-11-29T08:13:41.780Z,100941.91
2018-11-29T08:16:12.665Z,100947.69
2018-11-29T08:18:42.597Z,100953.13
2018-11-29T08:21:13.607Z,100948.91
2018-11-29T08:23:44.936Z,100945.64
2018-11-29T08:26:14.640Z,100945.80
2018-11-29T08:28:46.471Z,100944.52
2018-11-29T08:31:16.629Z,100939.36
2018-11-29T08:33:46.747Z,100938.63
2018-11-29T08:36:17.640Z,100934.41
2018-11-29T08:38:48.604Z,100934.70
2018-11-29T08:41:18.902Z,100932.00
2018-11-29T08:43:48.638Z,100933.39
2018-11-29T08:46:20.195Z,100936.47
2018-11-29T08:48:50.715Z,100932.33
2018-11-29T08:51:20.521Z,100927.47
2018-11-29T08:53:51.261Z,100929.76
2018-11-29T08:56:20.946Z,100930.61
2018-11-29T08:58:52.776Z,100931.80
2018-11-29T09:01:23.920Z,100930.16
2018-11-29T09:03:54.779Z,100928.13
2018-11-29T09:06:25.249Z,100916.99
2018-11-29T09:08:57.763Z,100930.70
2018-11-29T09:11:30.274Z,100930.20
2018-11-29T09:14:00.788Z,100933.81
2018-11-29T09:16:30.680Z,100931.30
2018-11-29T09:19:02.912Z,100933.59
2018-11-29T09:21:38.052Z,100930.75
2018-11-29T09:24:09.823Z,100934.13
2018-11-29T09:26:40.248Z,100928.34
2018-11-29T09:29:10.972Z,100936.74
2018-11-29T09:31:41.903Z,100938.37
2018-11-29T09:34:13.054Z,100928.71
2018-11-29T09:36:42.991Z,100936.40
2018-11-29T09:39:13.996Z,100927.75
2018-11-29T09:41:44.095Z,100927.43
2018-11-29T09:44:17.784Z,100926.39
2018-11-29T09:46:49.033Z,100928.61
2018-11-29T09:49:19.957Z,100933.37
2018-11-29T09:51:50.066Z,100935.23
2018-11-29T09:54:20.282Z,100939.88
2018-11-29T09:56:52.186Z,100935.48
2018-11-29T09:59:24.068Z,100917.69
2018-11-29T10:01:55.155Z,100917.27
2018-11-29T10:04:26.043Z,100915.62
2018-11-29T10:06:56.735Z,100921.06
2018-11-29T10:09:26.961Z,100917.38
2018-11-29T10:11:57.910Z,100909.68
2018-11-29T10:14:28.638Z,100906.00
2018-11-29T10:16:59.110Z,100899.52
2018-11-29T10:19:30.120Z,100906.73
2018-11-29T10:22:00.914Z,100913.41
2018-11-29T10:24:31.553Z,100899.91
2018-11-29T10:27:01.977Z,100904.27
2018-11-29T10:29:33.451Z,100908.23
2018-11-29T10:32:04.085Z,100897.40
2018-11-29T10:34:34.788Z,100895.26
2018-11-29T10:37:05.728Z,100896.12
2018-11-29T10:39:35.305Z,100884.89
2018-11-29T10:42:05.130Z,100881.41
2018-11-29T10:44:35.832Z,100896.42
2018-11-29T10:47:08.374Z,100880.87
2018-11-29T10:49:38.328Z,100884.66
2018-11-29T10:52:09.733Z,100880.44
2018-11-29T10:54:39.859Z,100878.95
2018-11-29T10:57:10.437Z,100872.88
2018-11-29T10:59:40.980Z,100866.64
2018-11-29T11:02:18.241Z,100854.84
2018-11-29T11:04:48.435Z,100857.80
2018-11-29T11:07:20.227Z,100854.57
2018-11-29T11:09:52.646Z,100855.22
2018-11-29T11:12:23.321Z,100853.26
2018-11-29T11:14:53.370Z,100856.02
2018-11-29T11:17:23.452Z,100858.28
2018-11-29T11:19:54.512Z,100849.72
2018-11-29T11:22:26.405Z,100832.73
2018-11-29T11:24:56.336Z,100844.08
2018-11-29T11:27:26.379Z,100831.94
2018-11-29T11:29:57.424Z,100831.23
2018-11-29T11:32:29.320Z,100834.28
2018-11-29T11:34:59.540Z,100838.80
2018-11-29T11:37:30.396Z,100843.16
2018-11-29T11:40:00.433Z,100819.09
2018-11-29T11:42:30.612Z,100821.61
2018-11-29T11:45:02.306Z,100811.17
2018-11-29T11:47:33.515Z,100810.60
2018-11-29T11:50:03.484Z,100808.31
2018-11-29T11:52:34.442Z,100806.05
2018-11-29T11:55:07.140Z,100803.27
2018-11-29T11:57:38.615Z,100793.52
2018-11-29T12:00:16.677Z,100792.27
2018-11-29T12:02:49.969Z,100796.22
2018-11-29T12:05:19.592Z,100789.83
2018-11-29T12:07:50.854Z,100789.53
2018-11-29T12:10:20.557Z,100779.45
2018-11-29T12:12:50.521Z,100773.14
2018-11-29T12:15:20.672Z,100770.89
2018-11-29T12:17:52.678Z,100765.14
2018-11-29T12:20:23.745Z,100771.10
2018-11-29T12:22:53.705Z,100769.14
2018-11-29T12:25:23.719Z,100759.84
2018-11-29T12:27:54.682Z,100763.36
2018-11-29T12:30:30.340Z,100753.20
2018-11-29T12:33:03.848Z,100745.23
2018-11-29T12:35:33.848Z,100747.53
2018-11-29T12:38:03.672Z,100745.89
2018-11-29T12:40:35.911Z,100740.08
2018-11-29T12:43:07.113Z,100743.55
2018-11-29T12:45:36.841Z,100743.97
2018-11-29T12:48:06.917Z,100745.29
2018-11-29T12:50:40.921Z,100744.63
2018-11-29T12:53:11.830Z,100738.47
2018-11-29T12:55:43.943Z,100736.94
2018-11-29T12:58:13.539Z,100738.19
2018-11-29T13:00:43.920Z,100737.23
2018-11-29T13:03:13.906Z,100748.98
2018-11-29T13:05:44.675Z,100747.02
2018-11-29T13:08:17.759Z,100734.69
2018-11-29T13:10:48.811Z,100733.55
2018-11-29T13:13:19.997Z,100731.77
2018-11-29T13:15:51.278Z,100738.16
2018-11-29T13:18:20.928Z,100730.52
2018-11-29T13:20:58.708Z,100727.77
2018-11-29T13:23:24.856Z,100720.03
2018-11-29T13:25:56.619Z,100718.38
2018-11-29T13:28:27.261Z,100716.68
2018-11-29T13:30:56.908Z,100717.96
2018-11-29T13:36:16.383Z,100701.63
2018-11-29T13:38:48.280Z,100698.61
2018-11-29T13:41:19.068Z,100711.66
2018-11-29T13:43:49.731Z,100712.90
2018-11-29T13:46:22.035Z,100703.58
2018-11-29T13:48:53.199Z,100700.06
2018-11-29T13:51:24.189Z,100708.72
2018-11-29T13:53:55.273Z,100706.47
2018-11-29T13:56:25.260Z,100703.73
2018-11-29T13:58:58.395Z,100705.42
2018-11-29T14:01:27.993Z,100705.27
2018-11-29T14:03:59.238Z,100700.47
2018-11-29T14:06:29.702Z,100706.12
2018-11-29T14:09:00.327Z,100704.67
2018-11-29T14:11:30.239Z,100706.84
2018-11-29T14:14:01.244Z,100702.63
2018-11-29T14:16:31.590Z,100707.49
2018-11-29T14:19:01.988Z,100705.79
2018-11-29T14:21:32.371Z,100696.70
2018-11-29T14:24:03.030Z,100710.19
2018-11-29T14:26:33.253Z,100699.59
2018-11-29T14:29:04.297Z,100708.39
2018-11-29T14:31:34.719Z,100712.55
2018-11-29T14:34:05.410Z,100710.16
2018-11-29T14:36:35.487Z,100715.47
2018-11-29T14:39:08.792Z,100717.66
2018-11-29T14:41:43.182Z,100710.97
2018-11-29T14:44:13.464Z,100710.17
2018-11-29T14:46:44.344Z,100711.31
2018-11-29T14:49:20.955Z,100707.87
2018-11-29T14:51:51.275Z,100704.17
2018-11-29T14:54:21.418Z,100713.51
2018-11-29T14:56:52.625Z,100726.48
2018-11-29T14:59:24.686Z,100727.94
2018-11-29T15:01:54.264Z,100727.64
2018-11-29T15:04:24.602Z,100718.36
2018-11-29T15:06:55.412Z,100725.61
2018-11-29T15:09:29.633Z,100722.84
2018-11-29T15:11:59.612Z,100718.30
2018-11-29T15:14:31.426Z,100716.36
2018-11-29T15:17:01.654Z,100722.28
2018-11-29T15:19:32.067Z,100714.11
2018-11-29T15:22:02.534Z,100718.09
2018-11-29T15:24:33.072Z,100722.42
2018-11-29T15:27:03.463Z,100723.84
2018-11-29T15:29:33.639Z,100723.54
2018-11-29T15:32:05.048Z,100718.19
2018-11-29T15:34:35.024Z,100720.58
2018-11-29T15:37:05.210Z,100718.06
2018-11-29T15:39:37.419Z,100715.31
2018-11-29T15:42:09.144Z,100724.43
2018-11-29T15:44:40.364Z,100718.48
2018-11-29T15:47:10.384Z,100728.14
2018-11-29T15:49:41.247Z,100727.98
2018-11-29T15:52:15.184Z,100724.22
2018-11-29T15:54:45.359Z,100720.14
2018-11-29T15:57:16.405Z,100728.89
2018-11-29T15:59:47.216Z,100718.69
2018-11-29T16:02:17.359Z,100719.73
2018-11-29T16:04:48.469Z,100709.44
2018-11-29T16:07:18.060Z,100713.36
2018-11-29T16:09:55.370Z,100716.69
2018-11-29T16:12:27.614Z,100712.05
2018-11-29T16:14:59.304Z,100717.94
2018-11-29T16:17:29.928Z,100712.02
2018-11-29T16:20:01.105Z,100724.10
2018-11-29T16:22:31.411Z,100713.04
2018-11-29T16:25:01.935Z,100721.20
2018-11-29T16:27:32.904Z,100719.50
2018-11-29T16:30:03.374Z,100709.36
2018-11-29T16:32:33.925Z,100704.90
2018-11-29T16:35:10.295Z,100696.50
2018-11-29T16:37:41.535Z,100694.47
2018-11-29T16:40:11.511Z,100697.36
2018-11-29T16:42:42.637Z,100697.52
2018-11-29T16:45:14.286Z,100695.81
2018-11-29T16:47:44.723Z,100704.90
2018-11-29T16:50:17.111Z,100702.92
2018-11-29T16:52:46.767Z,100698.16
2018-11-29T16:55:17.706Z,100702.33
2018-11-29T16:57:49.622Z,100686.72
2018-11-29T17:00:22.419Z,100684.35
2018-11-29T17:02:52.567Z,100682.80
2018-11-29T17:05:24.514Z,100685.70
2018-11-29T17:07:56.610Z,100679.48
2018-11-29T17:10:27.078Z,100677.84
2018-11-29T17:13:05.978Z,100680.89
2018-11-29T17:15:37.515Z,100675.89
2018-11-29T17:18:07.846Z,100675.13
2018-11-29T17:20:38.711Z,100673.74
2018-11-29T17:23:10.073Z,100671.58
2018-11-29T17:25:39.881Z,100675.25
2018-11-29T17:28:10.728Z,100675.03
2018-11-29T17:30:41.808Z,100664.06
2018-11-29T17:33:11.761Z,100662.33
2018-11-29T17:35:42.817Z,100661.13
2018-11-29T17:38:12.887Z,100664.59
2018-11-29T17:40:43.677Z,100658.86
2018-11-29T17:43:14.796Z,100668.36
2018-11-29T17:45:47.368Z,100662.55
2018-11-29T17:48:17.394Z,100657.30
2018-11-29T17:50:47.726Z,100654.63
2018-11-29T17:53:17.985Z,100657.23
2018-11-29T17:55:49.673Z,100664.77
2018-11-29T17:58:21.316Z,100666.79
2018-11-29T18:00:54.992Z,100663.89
2018-11-29T18:03:29.271Z,100664.13
2018-11-29T18:05:58.960Z,100663.66
2018-11-29T18:08:30.043Z,100660.59
2018-11-29T18:11:00.249Z,100662.34
2018-11-29T18:13:34.153Z,100664.30
2018-11-29T18:16:04.404Z,100664.14
2018-11-29T18:18:36.935Z,100657.22
2018-11-29T18:21:07.984Z,100660.93
2018-11-29T18:23:38.966Z,100653.69
2018-11-29T18:26:11.254Z,100665.38
2018-11-29T18:28:42.964Z,100651.36
2018-11-29T18:31:13.061Z,100665.16
2018-11-29T18:33:46.599Z,100647.05
2018-11-29T18:36:21.035Z,100650.59
2018-11-29T18:38:51.200Z,100643.30
2018-11-29T18:41:20.894Z,100650.50
2018-11-29T18:43:53.452Z,100643.68
2018-11-29T18:46:23.044Z,100649.02
2018-11-29T18:48:55.992Z,100638.83
2018-11-29T18:51:27.416Z,100646.96
2018-11-29T18:53:57.105Z,100641.95
2018-11-29T18:56:28.235Z,100634.05
2018-11-29T18:58:59.089Z,100634.20
2018-11-29T19:01:29.116Z,100635.91
2018-11-29T19:04:00.672Z,100624.23
2018-11-29T19:06:31.108Z,100630.83
2018-11-29T19:09:04.110Z,100625.01
2018-11-29T19:11:37.293Z,100611.06
2018-11-29T19:14:10.283Z,100619.45
2018-11-29T19:16:40.352Z,100629.31
2018-11-29T19:19:10.197Z,100622.12
2018-11-29T19:21:40.322Z,100631.92
2018-11-29T19:24:11.247Z,100603.70
2018-11-29T19:26:42.215Z,100622.02
2018-11-29T19:29:14.548Z,100621.56
2018-11-29T19:31:45.159Z,100621.19
2018-11-29T19:34:15.377Z,100612.47
2018-11-29T19:36:46.043Z,100603.31
2018-11-29T19:39:16.438Z,100614.33
2018-11-29T19:41:53.634Z,100600.48
2018-11-29T19:44:24.420Z,100602.28
2018-11-29T19:46:56.948Z,100614.97
2018-11-29T19:49:27.266Z,100602.66
2018-11-29T19:51:57.459Z,100601.09
2018-11-29T19:54:28.517Z,100607.07
2018-11-29T19:56:59.472Z,100615.36
2018-11-29T19:59:30.667Z,100609.31
2018-11-29T20:02:03.479Z,100617.16
2018-11-29T20:04:34.399Z,100613.17
2018-11-29T20:07:05.524Z,100611.66
2018-11-29T20:09:37.681Z,100616.28
2018-11-29T20:12:08.524Z,100607.89
2018-11-29T20:14:39.113Z,100602.87
2018-11-29T20:17:09.543Z,100605.55
2018-11-29T20:19:40.622Z,100602.66
2018-11-29T20:22:10.679Z,100599.67
2018-11-29T20:24:41.576Z,100613.00
2018-11-29T20:27:12.579Z,100600.86
2018-11-29T20:29:42.580Z,100599.28
2018-11-29T20:32:13.724Z,100603.20
2018-11-29T20:34:48.241Z,100597.33
2018-11-29T20:37:17.997Z,100599.61
2018-11-29T20:39:48.574Z,100598.84
2018-11-29T20:42:18.280Z,100595.69
2018-11-29T20:44:50.402Z,100589.10
2018-11-29T20:47:21.680Z,100591.44
2018-11-29T20:49:53.674Z,100589.58
2018-11-29T20:52:25.604Z,100590.28
2018-11-29T20:54:57.601Z,100583.85
2018-11-29T20:57:27.576Z,100588.05
2018-11-29T20:59:58.608Z,100585.00
2018-11-29T21:02:28.681Z,100587.02
2018-11-29T21:04:59.654Z,100586.19
2018-11-29T21:07:29.664Z,100571.45
2018-11-29T21:10:03.043Z,100577.00
2018-11-29T21:12:31.662Z,100585.48
2018-11-29T21:15:02.531Z,100571.70
2018-11-29T21:17:34.797Z,100572.96
2018-11-29T21:20:08.334Z,100562.56
2018-11-29T21:22:39.379Z,100563.97
2018-11-29T21:25:17.814Z,100562.61
2018-11-29T21:27:49.774Z,100556.68
2018-11-29T21:30:21.868Z,100545.86
2018-11-29T21:32:51.647Z,100548.08
2018-11-29T21:35:22.917Z,100547.21
2018-11-29T21:37:54.907Z,100541.01
2018-11-29T21:40:27.382Z,100528.74
2018-11-29T21:42:58.964Z,100537.67
2018-11-29T21:45:30.045Z,100529.58
2018-11-29T21:48:00.592Z,100541.17
2018-11-29T21:50:30.902Z,100538.05
2018-11-29T21:53:01.802Z,100543.39
2018-11-29T21:55:32.650Z,100535.16
2018-11-29T21:58:02.944Z,100535.23
2018-11-29T22:00:34.107Z,100541.87
2018-11-29T22:03:04.776Z,100549.94
2018-11-29T22:05:34.848Z,100537.80
2018-11-29T22:08:05.698Z,100524.34
2018-11-29T22:10:36.020Z,100524.66
2018-11-29T22:13:06.511Z,100519.48
2018-11-29T22:15:36.899Z,100523.41
2018-11-29T22:18:21.735Z,100516.92
2018-11-29T22:20:55.875Z,100517.85
2018-11-29T22:23:25.856Z,100512.84
2018-11-29T22:25:58.283Z,100507.35
2018-11-29T22:28:30.476Z,100505.39
2018-11-29T22:31:00.881Z,100504.84
2018-11-29T22:33:33.032Z,100496.40
2018-11-29T22:36:06.301Z,100500.31
2018-11-29T22:38:38.163Z,100493.28
2018-11-29T22:41:09.168Z,100490.30
2018-11-29T22:43:39.190Z,100488.34
2018-11-29T22:46:10.087Z,100490.36
2018-11-29T22:48:40.320Z,100485.29
2018-11-29T22:51:11.015Z,100490.91
2018-11-29T22:53:41.281Z,100475.27
2018-11-29T22:56:14.859Z,100487.86
2018-11-29T22:58:45.843Z,100480.27
2018-11-29T23:01:28.451Z,100482.45
2018-11-29T23:03:59.245Z,100469.93
2018-11-29T23:06:30.153Z,100469.77
2018-11-29T23:09:01.156Z,100459.91
2018-11-29T23:11:31.351Z,100460.87
2018-11-29T23:14:01.225Z,100452.94
2018-11-29T23:16:32.271Z,100453.80
2018-11-29T23:19:04.140Z,100433.69
2018-11-29T23:21:36.221Z,100434.91
2018-11-29T23:24:07.263Z,100433.44
2018-11-29T23:26:38.585Z,100432.19
2018-11-29T23:29:08.199Z,100430.13
2018-11-29T23:31:39.229Z,100428.75
2018-11-29T23:34:12.306Z,100426.09
2018-11-29T23:36:43.632Z,100428.89
2018-11-29T23:39:15.026Z,100408.78
2018-11-29T23:41:47.480Z,100409.09
2018-11-29T23:44:18.063Z,100402.73
2018-11-29T23:46:50.679Z,100402.17
2018-11-29T23:49:22.567Z,100405.39
2018-11-29T23:51:54.756Z,100403.12
2018-11-29T23:54:27.372Z,100397.48
2018-11-29T23:56:58.325Z,100401.24
2018-11-29T23:59:29.598Z,100397.27
